Terminal Aerodrome Forecast
Issued by NWS

Home | Current Version | Previous Version | Text Only | Print | Product List | Glossary On
Versions: 1 2 3 4 5 6 7 8 9 10 11 12 13 14 15
000
FTUS46 KPDT 250500
TAFDLS
TAF
KDLS 250525Z 2506/2606 08005KT P6SM SCT025 OVC035
      TEMPO 2506/2510 OVC025
     FM251000 09005KT 6SM BR BKN008 OVC025
     FM251800 10005KT P6SM VCSH BKN070 OVC120
     FM252200 32010KT P6SM -SHRA BKN050 OVC070=

USA.gov is the U.S. government's official web portal to all federal, state and local government web resources and services.